sensor_id;sensor_type;location;lat;lon;timestamp;temperature;humidity
19544;DHT22;9917;51.256;7.152;2023-06-22T00:09:14;22.70;83.00
19544;DHT22;9917;51.256;7.152;2023-06-22T00:16:33;22.60;84.70
19544;DHT22;9917;51.256;7.152;2023-06-22T00:26:18;22.60;84.00
19544;DHT22;9917;51.256;7.152;2023-06-22T00:43:22;22.60;81.70
19544;DHT22;9917;51.256;7.152;2023-06-22T00:53:06;22.70;80.20
19544;DHT22;9917;51.256;7.152;2023-06-22T00:57:59;22.70;81.40
19544;DHT22;9917;51.256;7.152;2023-06-22T01:00:27;22.80;81.30
19544;DHT22;9917;51.256;7.152;2023-06-22T01:05:19;22.90;81.50
19544;DHT22;9917;51.256;7.152;2023-06-22T01:07:54;22.80;81.40
19544;DHT22;9917;51.256;7.152;2023-06-22T01:10:27;22.70;81.70
19544;DHT22;9917;51.256;7.152;2023-06-22T01:12:58;22.70;81.90
19544;DHT22;9917;51.256;7.152;2023-06-22T01:15:31;22.70;82.30
19544;DHT22;9917;51.256;7.152;2023-06-22T01:17:59;23.50;83.10
19544;DHT22;9917;51.256;7.152;2023-06-22T01:20:27;22.60;82.70
19544;DHT22;9917;51.256;7.152;2023-06-22T01:23:02;22.80;85.40
19544;DHT22;9917;51.256;7.152;2023-06-22T01:25:38;22.60;82.90
19544;DHT22;9917;51.256;7.152;2023-06-22T01:28:18;22.80;83.30
19544;DHT22;9917;51.256;7.152;2023-06-22T01:30:48;22.50;83.00
19544;DHT22;9917;51.256;7.152;2023-06-22T01:33:16;22.60;83.40
19544;DHT22;9917;51.256;7.152;2023-06-22T01:35:42;22.70;83.40
19544;DHT22;9917;51.256;7.152;2023-06-22T01:38:09;22.60;82.90
19544;DHT22;9917;51.256;7.152;2023-06-22T01:40:35;22.50;83.10
19544;DHT22;9917;51.256;7.152;2023-06-22T01:43:02;22.50;83.10
19544;DHT22;9917;51.256;7.152;2023-06-22T01:47:56;22.10;86.30
19544;DHT22;9917;51.256;7.152;2023-06-22T01:50:22;22.30;86.40
19544;DHT22;9917;51.256;7.152;2023-06-22T02:00:10;22.30;84.70
19544;DHT22;9917;51.256;7.152;2023-06-22T02:02:40;22.20;85.70
19544;DHT22;9917;51.256;7.152;2023-06-22T02:05:11;22.20;86.70
19544;DHT22;9917;51.256;7.152;2023-06-22T02:07:44;22.10;87.20
19544;DHT22;9917;51.256;7.152;2023-06-22T02:10:14;20.60;88.20
19544;DHT22;9917;51.256;7.152;2023-06-22T02:12:42;22.00;87.50
19544;DHT22;9917;51.256;7.152;2023-06-22T02:15:09;22.40;87.90
19544;DHT22;9917;51.256;7.152;2023-06-22T02:20:02;21.80;88.00
19544;DHT22;9917;51.256;7.152;2023-06-22T02:22:29;21.80;88.30
19544;DHT22;9917;51.256;7.152;2023-06-22T02:24:56;21.80;88.60
19544;DHT22;9917;51.256;7.152;2023-06-22T02:34:40;21.80;90.00
19544;DHT22;9917;51.256;7.152;2023-06-22T02:39:33;21.70;90.40
19544;DHT22;9917;51.256;7.152;2023-06-22T02:46:51;21.60;90.50
19544;DHT22;9917;51.256;7.152;2023-06-22T02:51:45;21.50;90.50
19544;DHT22;9917;51.256;7.152;2023-06-22T02:56:39;21.60;91.00
19544;DHT22;9917;51.256;7.152;2023-06-22T03:13:42;21.80;91.00
19544;DHT22;9917;51.256;7.152;2023-06-22T03:18:34;22.00;91.80
19544;DHT22;9917;51.256;7.152;2023-06-22T03:30:45;21.80;91.60
19544;DHT22;9917;51.256;7.152;2023-06-22T03:47:48;21.90;91.50
19544;DHT22;9917;51.256;7.152;2023-06-22T03:52:40;21.50;92.80
19544;DHT22;9917;51.256;7.152;2023-06-22T03:55:07;22.00;91.40
19544;DHT22;9917;51.256;7.152;2023-06-22T04:04:52;22.10;91.50
19544;DHT22;9917;51.256;7.152;2023-06-22T04:12:10;22.60;93.10
19544;DHT22;9917;51.256;7.152;2023-06-22T04:21:58;22.40;91.30
19544;DHT22;9917;51.256;7.152;2023-06-22T04:36:38;22.70;90.80
19544;DHT22;9917;51.256;7.152;2023-06-22T04:39:07;22.60;90.70
19544;DHT22;9917;51.256;7.152;2023-06-22T04:56:10;22.90;90.10
19544;DHT22;9917;51.256;7.152;2023-06-22T05:13:13;23.10;90.00
19544;DHT22;9917;51.256;7.152;2023-06-22T05:30:16;23.60;87.70
19544;DHT22;9917;51.256;7.152;2023-06-22T05:35:09;23.70;87.20
19544;DHT22;9917;51.256;7.152;2023-06-22T05:47:20;24.00;86.20
19544;DHT22;9917;51.256;7.152;2023-06-22T05:49:46;24.00;88.30
19544;DHT22;9917;51.256;7.152;2023-06-22T05:52:11;23.40;85.90
19544;DHT22;9917;51.256;7.152;2023-06-22T05:57:04;24.10;85.10
19544;DHT22;9917;51.256;7.152;2023-06-22T06:04:23;24.20;85.40
19544;DHT22;9917;51.256;7.152;2023-06-22T06:21:26;24.10;86.40
19544;DHT22;9917;51.256;7.152;2023-06-22T06:33:36;24.20;90.80
19544;DHT22;9917;51.256;7.152;2023-06-22T06:38:29;23.60;89.60
19544;DHT22;9917;51.256;7.152;2023-06-22T06:53:05;23.70;92.40
19544;DHT22;9917;51.256;7.152;2023-06-22T06:55:32;23.30;92.90
19544;DHT22;9917;51.256;7.152;2023-06-22T07:10:08;23.30;99.50
19544;DHT22;9917;51.256;7.152;2023-06-22T07:12:36;22.60;99.90
19544;DHT22;9917;51.256;7.152;2023-06-22T07:15:02;22.60;99.90
19544;DHT22;9917;51.256;7.152;2023-06-22T07:22:21;21.30;99.90
19544;DHT22;9917;51.256;7.152;2023-06-22T07:29:40;22.10;99.90
19544;DHT22;9917;51.256;7.152;2023-06-22T07:32:08;22.60;99.90
19544;DHT22;9917;51.256;7.152;2023-06-22T07:37:00;22.30;99.90
19544;DHT22;9917;51.256;7.152;2023-06-22T07:46:45;23.90;99.90
19544;DHT22;9917;51.256;7.152;2023-06-22T08:03:49;25.90;99.90
19544;DHT22;9917;51.256;7.152;2023-06-22T08:20:52;26.80;99.00
19544;DHT22;9917;51.256;7.152;2023-06-22T08:37:55;26.80;98.40
19544;DHT22;9917;51.256;7.152;2023-06-22T08:40:22;27.00;97.90
19544;DHT22;9917;51.256;7.152;2023-06-22T08:45:14;27.00;97.50
19544;DHT22;9917;51.256;7.152;2023-06-22T08:47:40;26.10;97.50
19544;DHT22;9917;51.256;7.152;2023-06-22T08:50:07;27.00;97.70
19544;DHT22;9917;51.256;7.152;2023-06-22T08:55:00;27.40;97.30
19544;DHT22;9917;51.256;7.152;2023-06-22T09:12:04;40.00;54.80
19544;DHT22;9917;51.256;7.152;2023-06-22T09:14:30;41.80;51.20
19544;DHT22;9917;51.256;7.152;2023-06-22T09:16:57;43.40;47.40
19544;DHT22;9917;51.256;7.152;2023-06-22T09:19:23;44.70;42.80
19544;DHT22;9917;51.256;7.152;2023-06-22T09:24:16;41.90;43.80
19544;DHT22;9917;51.256;7.152;2023-06-22T09:29:09;39.10;47.30
19544;DHT22;9917;51.256;7.152;2023-06-22T09:34:01;39.80;47.30
19544;DHT22;9917;51.256;7.152;2023-06-22T09:41:19;41.80;45.40
19544;DHT22;9917;51.256;7.152;2023-06-22T09:46:12;40.70;44.40
19544;DHT22;9917;51.256;7.152;2023-06-22T09:53:29;37.80;49.00
19544;DHT22;9917;51.256;7.152;2023-06-22T10:00:50;34.90;52.60
19544;DHT22;9917;51.256;7.152;2023-06-22T10:03:17;34.60;53.40
19544;DHT22;9917;51.256;7.152;2023-06-22T10:13:08;34.60;54.20
19544;DHT22;9917;51.256;7.152;2023-06-22T10:18:00;35.60;53.80
19544;DHT22;9917;51.256;7.152;2023-06-22T10:20:27;36.20;53.80
19544;DHT22;9917;51.256;7.152;2023-06-22T10:30:12;35.50;53.60
19544;DHT22;9917;51.256;7.152;2023-06-22T10:35:05;34.80;56.60
19544;DHT22;9917;51.256;7.152;2023-06-22T10:37:33;33.40;57.00
19544;DHT22;9917;51.256;7.152;2023-06-22T10:54:37;29.60;68.80
19544;DHT22;9917;51.256;7.152;2023-06-22T10:57:03;29.00;70.90
19544;DHT22;9917;51.256;7.152;2023-06-22T11:11:41;27.70;90.10
19544;DHT22;9917;51.256;7.152;2023-06-22T11:18:59;27.10;99.30
19544;DHT22;9917;51.256;7.152;2023-06-22T11:26:16;25.50;99.90
19544;DHT22;9917;51.256;7.152;2023-06-22T11:28:44;25.70;99.90
19544;DHT22;9917;51.256;7.152;2023-06-22T11:38:27;25.30;99.90
19544;DHT22;9917;51.256;7.152;2023-06-22T11:40:53;23.70;99.90
19544;DHT22;9917;51.256;7.152;2023-06-22T11:45:46;23.90;99.90
19544;DHT22;9917;51.256;7.152;2023-06-22T11:57:57;22.80;99.90
19544;DHT22;9917;51.256;7.152;2023-06-22T12:02:50;23.00;99.90
19544;DHT22;9917;51.256;7.152;2023-06-22T12:10:09;22.50;99.90
19544;DHT22;9917;51.256;7.152;2023-06-22T12:19:54;24.00;99.90
19544;DHT22;9917;51.256;7.152;2023-06-22T12:27:12;24.20;99.90
19544;DHT22;9917;51.256;7.152;2023-06-22T12:32:05;24.00;99.90
19544;DHT22;9917;51.256;7.152;2023-06-22T12:36:58;25.10;99.90
19544;DHT22;9917;51.256;7.152;2023-06-22T12:39:23;27.00;99.90
19544;DHT22;9917;51.256;7.152;2023-06-22T12:54:01;27.90;99.90
19544;DHT22;9917;51.256;7.152;2023-06-22T12:58:59;27.40;99.90
19544;DHT22;9917;51.256;7.152;2023-06-22T13:08:49;27.90;99.90
19544;DHT22;9917;51.256;7.152;2023-06-22T13:11:16;28.70;99.90
19544;DHT22;9917;51.256;7.152;2023-06-22T13:28:20;33.80;95.10
19544;DHT22;9917;51.256;7.152;2023-06-22T13:35:38;32.50;93.80
19544;DHT22;9917;51.256;7.152;2023-06-22T13:45:23;29.60;97.70
19544;DHT22;9917;51.256;7.152;2023-06-22T13:55:08;30.50;95.90
19544;DHT22;9917;51.256;7.152;2023-06-22T13:57:34;29.90;96.70
19544;DHT22;9917;51.256;7.152;2023-06-22T14:02:27;29.80;97.20
19544;DHT22;9917;51.256;7.152;2023-06-22T14:12:12;29.80;96.60
19544;DHT22;9917;51.256;7.152;2023-06-22T14:17:05;29.70;97.40
19544;DHT22;9917;51.256;7.152;2023-06-22T14:19:35;29.70;97.30
19544;DHT22;9917;51.256;7.152;2023-06-22T14:22:04;29.60;97.20
19544;DHT22;9917;51.256;7.152;2023-06-22T14:36:42;27.40;99.90
19544;DHT22;9917;51.256;7.152;2023-06-22T14:53:46;31.20;94.10
19544;DHT22;9917;51.256;7.152;2023-06-22T14:56:12;31.00;93.30
19544;DHT22;9917;51.256;7.152;2023-06-22T15:03:30;30.00;93.30
19544;DHT22;9917;51.256;7.152;2023-06-22T15:10:50;28.60;96.50
19544;DHT22;9917;51.256;7.152;2023-06-22T15:25:26;26.20;99.90
19544;DHT22;9917;51.256;7.152;2023-06-22T15:27:54;25.90;99.90
19544;DHT22;9917;51.256;7.152;2023-06-22T15:37:41;24.60;99.90
19544;DHT22;9917;51.256;7.152;2023-06-22T15:40:09;23.60;99.90
19544;DHT22;9917;51.256;7.152;2023-06-22T15:42:38;23.50;99.90
19544;DHT22;9917;51.256;7.152;2023-06-22T15:45:06;24.10;99.90
19544;DHT22;9917;51.256;7.152;2023-06-22T16:02:13;23.00;99.90
19544;DHT22;9917;51.256;7.152;2023-06-22T16:04:41;22.20;99.90
19544;DHT22;9917;51.256;7.152;2023-06-22T16:16:52;23.50;99.90
19544;DHT22;9917;51.256;7.152;2023-06-22T16:19:22;22.60;99.90
19544;DHT22;9917;51.256;7.152;2023-06-22T16:26:41;22.80;99.90
19544;DHT22;9917;51.256;7.152;2023-06-22T16:29:08;22.60;99.90
19544;DHT22;9917;51.256;7.152;2023-06-22T16:36:27;22.80;99.90
19544;DHT22;9917;51.256;7.152;2023-06-22T16:41:22;22.80;99.90
19544;DHT22;9917;51.256;7.152;2023-06-22T16:46:14;23.90;99.90
19544;DHT22;9917;51.256;7.152;2023-06-22T16:48:49;23.30;99.90
19544;DHT22;9917;51.256;7.152;2023-06-22T16:53:43;23.20;99.90
19544;DHT22;9917;51.256;7.152;2023-06-22T16:58:37;23.30;99.90
19544;DHT22;9917;51.256;7.152;2023-06-22T17:01:03;23.20;99.90
19544;DHT22;9917;51.256;7.152;2023-06-22T17:03:33;23.20;99.90
19544;DHT22;9917;51.256;7.152;2023-06-22T17:06:01;23.20;99.90
19544;DHT22;9917;51.256;7.152;2023-06-22T17:08:29;23.20;99.90
19544;DHT22;9917;51.256;7.152;2023-06-22T17:10:58;23.30;99.90
19544;DHT22;9917;51.256;7.152;2023-06-22T17:15:54;24.80;99.90
19544;DHT22;9917;51.256;7.152;2023-06-22T17:18:24;23.40;99.90
19544;DHT22;9917;51.256;7.152;2023-06-22T17:25:43;23.30;99.90
19544;DHT22;9917;51.256;7.152;2023-06-22T17:28:10;23.40;99.90
19544;DHT22;9917;51.256;7.152;2023-06-22T17:35:31;23.40;99.90
19544;DHT22;9917;51.256;7.152;2023-06-22T17:37:58;23.30;99.90
19544;DHT22;9917;51.256;7.152;2023-06-22T17:40:24;23.20;99.90
19544;DHT22;9917;51.256;7.152;2023-06-22T17:42:51;23.60;99.90
19544;DHT22;9917;51.256;7.152;2023-06-22T17:45:21;22.80;99.90
19544;DHT22;9917;51.256;7.152;2023-06-22T17:47:50;22.60;99.90
19544;DHT22;9917;51.256;7.152;2023-06-22T17:50:17;22.50;99.90
19544;DHT22;9917;51.256;7.152;2023-06-22T17:52:52;22.40;99.90
19544;DHT22;9917;51.256;7.152;2023-06-22T17:55:20;22.50;99.90
19544;DHT22;9917;51.256;7.152;2023-06-22T17:57:48;22.00;99.90
19544;DHT22;9917;51.256;7.152;2023-06-22T18:00:14;22.50;99.90
19544;DHT22;9917;51.256;7.152;2023-06-22T18:02:45;22.70;99.90
19544;DHT22;9917;51.256;7.152;2023-06-22T18:10:04;21.90;99.90
19544;DHT22;9917;51.256;7.152;2023-06-22T18:12:31;22.80;99.90
19544;DHT22;9917;51.256;7.152;2023-06-22T18:17:24;23.00;99.90
19544;DHT22;9917;51.256;7.152;2023-06-22T18:19:51;23.10;99.90
19544;DHT22;9917;51.256;7.152;2023-06-22T18:24:44;23.20;99.90
19544;DHT22;9917;51.256;7.152;2023-06-22T18:27:10;23.30;99.90
19544;DHT22;9917;51.256;7.152;2023-06-22T18:29:37;23.30;99.90
19544;DHT22;9917;51.256;7.152;2023-06-22T18:32:05;23.90;99.90
19544;DHT22;9917;51.256;7.152;2023-06-22T18:34:31;24.10;99.90
19544;DHT22;9917;51.256;7.152;2023-06-22T18:36:59;23.40;99.90
19544;DHT22;9917;51.256;7.152;2023-06-22T18:39:26;23.30;99.90
19544;DHT22;9917;51.256;7.152;2023-06-22T18:41:54;23.30;99.90
19544;DHT22;9917;51.256;7.152;2023-06-22T18:44:24;23.30;99.90
19544;DHT22;9917;51.256;7.152;2023-06-22T18:46:51;23.20;99.90
19544;DHT22;9917;51.256;7.152;2023-06-22T18:49:17;23.90;99.90
19544;DHT22;9917;51.256;7.152;2023-06-22T18:51:50;22.50;99.90
19544;DHT22;9917;51.256;7.152;2023-06-22T18:54:23;22.90;99.90
19544;DHT22;9917;51.256;7.152;2023-06-22T18:56:54;23.80;99.90
19544;DHT22;9917;51.256;7.152;2023-06-22T18:59:47;23.10;99.90
19544;DHT22;9917;51.256;7.152;2023-06-22T19:05:05;22.90;99.90
19544;DHT22;9917;51.256;7.152;2023-06-22T19:07:56;23.00;99.90
19544;DHT22;9917;51.256;7.152;2023-06-22T19:10:27;22.90;99.90
19544;DHT22;9917;51.256;7.152;2023-06-22T19:12:56;23.30;99.90
19544;DHT22;9917;51.256;7.152;2023-06-22T19:15:30;22.90;99.90
19544;DHT22;9917;51.256;7.152;2023-06-22T19:18:00;22.90;99.90
19544;DHT22;9917;51.256;7.152;2023-06-22T19:20:31;22.90;99.90
19544;DHT22;9917;51.256;7.152;2023-06-22T19:23:00;22.90;99.90
19544;DHT22;9917;51.256;7.152;2023-06-22T19:25:28;22.80;99.90
19544;DHT22;9917;51.256;7.152;2023-06-22T19:27:54;22.70;99.90
19544;DHT22;9917;51.256;7.152;2023-06-22T19:30:21;23.60;99.90
19544;DHT22;9917;51.256;7.152;2023-06-22T19:32:49;22.90;99.90
19544;DHT22;9917;51.256;7.152;2023-06-22T19:35:16;22.90;99.90
19544;DHT22;9917;51.256;7.152;2023-06-22T19:40:10;22.40;99.90
19544;DHT22;9917;51.256;7.152;2023-06-22T19:42:38;22.70;99.90
19544;DHT22;9917;51.256;7.152;2023-06-22T19:45:05;23.10;99.90
19544;DHT22;9917;51.256;7.152;2023-06-22T19:47:32;22.80;99.90
19544;DHT22;9917;51.256;7.152;2023-06-22T19:49:58;22.70;99.90
19544;DHT22;9917;51.256;7.152;2023-06-22T19:59:43;22.60;99.90
19544;DHT22;9917;51.256;7.152;2023-06-22T20:04:36;22.70;99.90
19544;DHT22;9917;51.256;7.152;2023-06-22T20:07:03;22.50;99.90
19544;DHT22;9917;51.256;7.152;2023-06-22T20:11:56;24.10;99.90
19544;DHT22;9917;51.256;7.152;2023-06-22T20:16:49;22.00;99.90
19544;DHT22;9917;51.256;7.152;2023-06-22T20:21:43;21.70;99.90
19544;DHT22;9917;51.256;7.152;2023-06-22T20:24:10;21.50;99.90
19544;DHT22;9917;51.256;7.152;2023-06-22T20:26:39;21.40;99.90
19544;DHT22;9917;51.256;7.152;2023-06-22T20:29:23;21.20;99.90
19544;DHT22;9917;51.256;7.152;2023-06-22T20:32:02;21.10;99.90
19544;DHT22;9917;51.256;7.152;2023-06-22T20:34:32;21.00;99.90
19544;DHT22;9917;51.256;7.152;2023-06-22T20:39:24;21.50;99.90
19544;DHT22;9917;51.256;7.152;2023-06-22T20:49:09;20.40;99.90
19544;DHT22;9917;51.256;7.152;2023-06-22T20:58:53;20.60;99.90
19544;DHT22;9917;51.256;7.152;2023-06-22T21:03:47;20.00;99.90
19544;DHT22;9917;51.256;7.152;2023-06-22T21:06:14;20.00;99.90
19544;DHT22;9917;51.256;7.152;2023-06-22T21:23:17;19.70;99.90
19544;DHT22;9917;51.256;7.152;2023-06-22T21:28:09;19.70;99.90
19544;DHT22;9917;51.256;7.152;2023-06-22T21:37:54;19.30;99.90
19544;DHT22;9917;51.256;7.152;2023-06-22T21:40:21;19.20;99.90
19544;DHT22;9917;51.256;7.152;2023-06-22T21:42:48;19.20;99.90
19544;DHT22;9917;51.256;7.152;2023-06-22T21:50:06;19.80;99.90
19544;DHT22;9917;51.256;7.152;2023-06-22T21:57:26;19.30;99.90
19544;DHT22;9917;51.256;7.152;2023-06-22T22:04:48;19.40;99.90
19544;DHT22;9917;51.256;7.152;2023-06-22T22:12:06;19.40;99.90
19544;DHT22;9917;51.256;7.152;2023-06-22T22:14:33;19.40;99.90
19544;DHT22;9917;51.256;7.152;2023-06-22T22:26:43;19.00;99.90
19544;DHT22;9917;51.256;7.152;2023-06-22T22:31:36;19.20;99.90
19544;DHT22;9917;51.256;7.152;2023-06-22T22:34:02;19.40;99.90
19544;DHT22;9917;51.256;7.152;2023-06-22T22:36:28;17.90;99.90
19544;DHT22;9917;51.256;7.152;2023-06-22T22:46:12;19.20;99.90
19544;DHT22;9917;51.256;7.152;2023-06-22T22:48:39;19.20;99.90
19544;DHT22;9917;51.256;7.152;2023-06-22T22:51:06;17.60;99.90
19544;DHT22;9917;51.256;7.152;2023-06-22T22:55:58;18.80;99.90
19544;DHT22;9917;51.256;7.152;2023-06-22T23:05:43;19.20;99.90
19544;DHT22;9917;51.256;7.152;2023-06-22T23:22:50;19.10;99.90
19544;DHT22;9917;51.256;7.152;2023-06-22T23:25:17;19.60;99.90
19544;DHT22;9917;51.256;7.152;2023-06-22T23:39:55;19.00;99.90
19544;DHT22;9917;51.256;7.152;2023-06-22T23:52:05;18.90;99.90
19544;DHT22;9917;51.256;7.152;2023-06-22T23:56:58;18.90;99.90
19544;DHT22;9917;51.256;7.152;2023-06-22T23:59:24;19.10;99.90
